Xin Fei Zhou — BPKD — position and weather

sailwx.info

Track history (hours):
 
Tides and Currents Weather Stations Pressure Air Temp Water Temp Dewpoint Dewpoint Depression Visibility Wind Speed Wind Dir Waves Ship Positions

Xin Fei Zhou

Last reported at 2018-Aug-01 01:14 UTC. Time now 2018-Aug-19 23:12 UTC.
Position N 27°14' W 115°27'.
Warning: this ship's position is 18 days out of date.

Length 335 m; draft 13.1 m.

Type: Ship (hazmat cat A). MMSI: 413171000.

Date/timePositionNaut miles runAvg speedWind from/ knotsBaromVisibWave heightAir tempDewpointWater temp
2018-Aug-01 01:14N 27°14' W 115°27'11416.0
2018-Jul-31 18:05N 29°00' W 116°13'916.3
2018-Jul-31 17:33N 29°09' W 116°16'216.6
2018-Jul-31 17:26N 29°11' W 116°16'6616.7
2018-Jul-31 13:30N 30°15' W 116°35'916.7
2018-Jul-31 12:57N 30°24' W 116°37'2116.5
2018-Jul-31 11:40N 30°44' W 116°43'516.4
2018-Jul-31 11:24N 30°48' W 116°45'716.5
2018-Jul-31 11:00N 30°55' W 116°46'916.5
2018-Jul-31 10:29N 31°03' W 116°48'816.4
2018-Jul-31 10:00N 31°11' W 116°48'816.1
2018-Jul-31 09:31N 31°19' W 116°50'816.3
2018-Jul-31 09:00N 31°27' W 116°51'816.0
2018-Jul-31 08:30N 31°35' W 116°52'816.3
2018-Jul-31 08:00N 31°43' W 116°52'816.5
2018-Jul-31 07:31N 31°47' W 116°43'1 0.0
2018-Jul-30 06:21N 31°48' W 116°43'4 7.3
2018-Jul-30 05:45N 31°46' W 116°48'313.3
2018-Jul-30 05:30N 31°45' W 116°51'713.3
2018-Jul-30 05:00N 31°42' W 116°58'713.0
2018-Jul-30 04:30N 31°39' W 117°05'713.4
2018-Jul-30 04:01N 31°36' W 117°12'713.7
2018-Jul-30 03:30N 31°34' W 117°20'713.8
2018-Jul-30 03:00N 31°31' W 117°27'713.7
2018-Jul-30 02:30N 31°29' W 117°35'713.8
2018-Jul-30 02:00N 31°26' W 117°42'714.1
2018-Jul-30 01:30N 31°23' W 117°50'815.0
2018-Jul-30 01:00N 31°20' W 117°58'815.1
2018-Jul-30 00:30N 31°18' W 118°06'815.3
2018-Jul-30 00:00N 31°15' W 118°14'815.3
2018-Jul-29 23:30N 31°11' W 118°23'815.2
2018-Jul-29 23:00N 31°08' W 118°31'815.1
2018-Jul-29 22:30N 31°06' W 118°39'815.2
2018-Jul-29 22:00N 31°04' W 118°47'715.0
2018-Jul-29 21:30N 31°01' W 118°56'1 2.3
2018-Jul-29 21:00N 31°02' W 118°57'2 3.3
2018-Jul-29 20:30N 31°01' W 118°59'815.4
2018-Jul-29 20:01N 30°59' W 119°07'915.6
2018-Jul-29 19:27N 30°57' W 119°17'715.7
2018-Jul-29 19:00N 30°55' W 119°25'816.0
2018-Jul-29 18:30N 30°53' W 119°34'816.4
2018-Jul-29 18:01N 30°51' W 119°43'916.4
2018-Jul-29 17:29N 30°49' W 119°53'816.4
2018-Jul-29 17:00N 30°47' W 120°02'816.3
2018-Jul-29 16:30N 30°45' W 120°11'816.2
2018-Jul-29 16:00N 30°43' W 120°20'816.2
2018-Jul-29 15:30N 30°40' W 120°29'816.3
2018-Jul-29 15:00N 30°38' W 120°38'816.3
2018-Jul-29 14:30N 30°36' W 120°48'1616.1
2018-Jul-29 13:30N 30°32' W 121°05'816.4
2018-Jul-29 13:01N 30°30' W 121°14'816.3
2018-Jul-29 12:30N 30°28' W 121°24'816.3
2018-Jul-29 12:00N 30°26' W 121°33'815.9
2018-Jul-29 11:30N 30°24' W 121°42'815.9
2018-Jul-29 11:00N 30°22' W 121°51'814.6
2018-Jul-29 10:28N 30°22' W 121°60'716.1
2018-Jul-29 10:00N 30°27' W 122°07'816.1
2018-Jul-29 09:31N 30°32' W 122°14'816.2
2018-Jul-29 09:00N 30°37' W 122°21'816.2
2018-Jul-29 08:30N 30°42' W 122°29'816.1
2018-Jul-29 08:00N 30°47' W 122°36'816.0
2018-Jul-29 07:31N 30°52' W 122°43'816.0
2018-Jul-29 07:00N 30°57' W 122°51'815.9
2018-Jul-29 06:31N 31°01' W 122°58'816.2
2018-Jul-29 06:00N 31°06' W 123°05'815.8
2018-Jul-29 05:30N 31°11' W 123°13'815.8
2018-Jul-29 05:00N 31°16' W 123°20'816.1
2018-Jul-29 04:30N 31°21' W 123°27'816.1
2018-Jul-29 04:00N 31°26' W 123°35'816.2
2018-Jul-29 03:31N 31°31' W 123°42'816.1
2018-Jul-29 03:00N 31°36' W 123°49'816.2
2018-Jul-29 02:30N 31°41' W 123°57'816.3
2018-Jul-29 02:00N 31°46' W 124°05'916.2
2018-Jul-29 01:29N 31°52' W 124°12'816.3
2018-Jul-29 00:59N 31°57' W 124°20'816.2
2018-Jul-29 00:30N 32°02' W 124°27'816.4
2018-Jul-28 23:59N 32°07' W 124°35'816.3
2018-Jul-28 23:31N 32°12' W 124°42'916.1
2018-Jul-28 22:56N 32°18' W 124°50'716.1
2018-Jul-28 22:30N 32°22' W 124°57'815.9
2018-Jul-28 22:00N 32°27' W 125°04'1216.2
2018-Jul-28 21:15N 32°34' W 125°16'1016.2
2018-Jul-28 20:38N 32°40' W 125°25'1516.1
2018-Jul-28 19:41N 32°49' W 125°40'416.5
2018-Jul-28 19:28N 32°51' W 125°44'916.3
2018-Jul-28 18:57N 32°56' W 125°52'2316.1
2018-Jul-28 17:31N 33°09' W 126°14'015.7
2018-Jul-28 17:30N 33°10' W 126°14'916.2
2018-Jul-28 16:58N 33°15' W 126°23'1016.3
2018-Jul-28 16:21N 33°21' W 126°32'3316.0
2018-Jul-28 14:17N 33°40' W 127°04'415.8
2018-Jul-28 14:00N 33°43' W 127°09'815.9
2018-Jul-28 13:30N 33°47' W 127°16'1016.0
2018-Jul-28 12:52N 33°53' W 127°26'616.0
2018-Jul-28 12:31N 33°57' W 127°32'816.0
2018-Jul-28 12:00N 34°02' W 127°40'815.9
2018-Jul-28 11:30N 34°06' W 127°47'815.7
2018-Jul-28 11:00N 34°11' W 127°55'1715.6
2018-Jul-28 09:53N 34°21' W 128°12'615.5
2018-Jul-28 09:30N 34°25' W 128°18'1415.5
2018-Jul-28 08:34N 34°34' W 128°32'3615.5
2018-Jul-28 06:14N 34°55' W 129°07'  
Track history (hours):
 
Tides and Currents Weather Stations Pressure Air Temp Water Temp Dewpoint Dewpoint Depression Visibility Wind Speed Wind Dir Waves Ship Positions

Xin Fei Zhou

Last reported at 2018-Aug-01 01:14 UTC. Time now 2018-Aug-19 23:12 UTC.
Position N 27°14' W 115°27'.
Warning: this ship's position is 18 days out of date.

Length 335 m; draft 13.1 m.

Type: Ship (hazmat cat A). MMSI: 413171000.

Date/timePositionNaut miles runAvg speedWind from/ knotsBaromVisibWave heightAir tempDewpointWater temp
2018-Aug-01 01:14N 27°14' W 115°27'11416.0
2018-Jul-31 18:05N 29°00' W 116°13'916.3
2018-Jul-31 17:33N 29°09' W 116°16'216.6
2018-Jul-31 17:26N 29°11' W 116°16'6616.7
2018-Jul-31 13:30N 30°15' W 116°35'916.7
2018-Jul-31 12:57N 30°24' W 116°37'2116.5
2018-Jul-31 11:40N 30°44' W 116°43'516.4
2018-Jul-31 11:24N 30°48' W 116°45'716.5
2018-Jul-31 11:00N 30°55' W 116°46'916.5
2018-Jul-31 10:29N 31°03' W 116°48'816.4
2018-Jul-31 10:00N 31°11' W 116°48'816.1
2018-Jul-31 09:31N 31°19' W 116°50'816.3
2018-Jul-31 09:00N 31°27' W 116°51'816.0
2018-Jul-31 08:30N 31°35' W 116°52'816.3
2018-Jul-31 08:00N 31°43' W 116°52'816.5
2018-Jul-31 07:31N 31°47' W 116°43'1 0.0
2018-Jul-30 06:21N 31°48' W 116°43'4 7.3
2018-Jul-30 05:45N 31°46' W 116°48'313.3
2018-Jul-30 05:30N 31°45' W 116°51'713.3
2018-Jul-30 05:00N 31°42' W 116°58'713.0
2018-Jul-30 04:30N 31°39' W 117°05'713.4
2018-Jul-30 04:01N 31°36' W 117°12'713.7
2018-Jul-30 03:30N 31°34' W 117°20'713.8
2018-Jul-30 03:00N 31°31' W 117°27'713.7
2018-Jul-30 02:30N 31°29' W 117°35'713.8
2018-Jul-30 02:00N 31°26' W 117°42'714.1
2018-Jul-30 01:30N 31°23' W 117°50'815.0
2018-Jul-30 01:00N 31°20' W 117°58'815.1
2018-Jul-30 00:30N 31°18' W 118°06'815.3
2018-Jul-30 00:00N 31°15' W 118°14'815.3
2018-Jul-29 23:30N 31°11' W 118°23'815.2
2018-Jul-29 23:00N 31°08' W 118°31'815.1
2018-Jul-29 22:30N 31°06' W 118°39'815.2
2018-Jul-29 22:00N 31°04' W 118°47'715.0
2018-Jul-29 21:30N 31°01' W 118°56'1 2.3
2018-Jul-29 21:00N 31°02' W 118°57'2 3.3
2018-Jul-29 20:30N 31°01' W 118°59'815.4
2018-Jul-29 20:01N 30°59' W 119°07'915.6
2018-Jul-29 19:27N 30°57' W 119°17'715.7
2018-Jul-29 19:00N 30°55' W 119°25'816.0
2018-Jul-29 18:30N 30°53' W 119°34'816.4
2018-Jul-29 18:01N 30°51' W 119°43'916.4
2018-Jul-29 17:29N 30°49' W 119°53'816.4
2018-Jul-29 17:00N 30°47' W 120°02'816.3
2018-Jul-29 16:30N 30°45' W 120°11'816.2
2018-Jul-29 16:00N 30°43' W 120°20'816.2
2018-Jul-29 15:30N 30°40' W 120°29'816.3
2018-Jul-29 15:00N 30°38' W 120°38'816.3
2018-Jul-29 14:30N 30°36' W 120°48'1616.1
2018-Jul-29 13:30N 30°32' W 121°05'816.4
2018-Jul-29 13:01N 30°30' W 121°14'816.3
2018-Jul-29 12:30N 30°28' W 121°24'816.3
2018-Jul-29 12:00N 30°26' W 121°33'815.9
2018-Jul-29 11:30N 30°24' W 121°42'815.9
2018-Jul-29 11:00N 30°22' W 121°51'814.6
2018-Jul-29 10:28N 30°22' W 121°60'716.1
2018-Jul-29 10:00N 30°27' W 122°07'816.1
2018-Jul-29 09:31N 30°32' W 122°14'816.2
2018-Jul-29 09:00N 30°37' W 122°21'816.2
2018-Jul-29 08:30N 30°42' W 122°29'816.1
2018-Jul-29 08:00N 30°47' W 122°36'816.0
2018-Jul-29 07:31N 30°52' W 122°43'816.0
2018-Jul-29 07:00N 30°57' W 122°51'815.9
2018-Jul-29 06:31N 31°01' W 122°58'816.2
2018-Jul-29 06:00N 31°06' W 123°05'815.8
2018-Jul-29 05:30N 31°11' W 123°13'815.8
2018-Jul-29 05:00N 31°16' W 123°20'816.1
2018-Jul-29 04:30N 31°21' W 123°27'816.1
2018-Jul-29 04:00N 31°26' W 123°35'816.2
2018-Jul-29 03:31N 31°31' W 123°42'816.1
2018-Jul-29 03:00N 31°36' W 123°49'816.2
2018-Jul-29 02:30N 31°41' W 123°57'816.3
2018-Jul-29 02:00N 31°46' W 124°05'916.2
2018-Jul-29 01:29N 31°52' W 124°12'816.3
2018-Jul-29 00:59N 31°57' W 124°20'816.2
2018-Jul-29 00:30N 32°02' W 124°27'816.4
2018-Jul-28 23:59N 32°07' W 124°35'816.3
2018-Jul-28 23:31N 32°12' W 124°42'916.1
2018-Jul-28 22:56N 32°18' W 124°50'716.1
2018-Jul-28 22:30N 32°22' W 124°57'815.9
2018-Jul-28 22:00N 32°27' W 125°04'1216.2
2018-Jul-28 21:15N 32°34' W 125°16'1016.2
2018-Jul-28 20:38N 32°40' W 125°25'1516.1
2018-Jul-28 19:41N 32°49' W 125°40'416.5
2018-Jul-28 19:28N 32°51' W 125°44'916.3
2018-Jul-28 18:57N 32°56' W 125°52'2316.1
2018-Jul-28 17:31N 33°09' W 126°14'015.7
2018-Jul-28 17:30N 33°10' W 126°14'916.2
2018-Jul-28 16:58N 33°15' W 126°23'1016.3
2018-Jul-28 16:21N 33°21' W 126°32'3316.0
2018-Jul-28 14:17N 33°40' W 127°04'415.8
2018-Jul-28 14:00N 33°43' W 127°09'815.9
2018-Jul-28 13:30N 33°47' W 127°16'1016.0
2018-Jul-28 12:52N 33°53' W 127°26'616.0
2018-Jul-28 12:31N 33°57' W 127°32'816.0
2018-Jul-28 12:00N 34°02' W 127°40'815.9
2018-Jul-28 11:30N 34°06' W 127°47'815.7
2018-Jul-28 11:00N 34°11' W 127°55'1715.6
2018-Jul-28 09:53N 34°21' W 128°12'615.5
2018-Jul-28 09:30N 34°25' W 128°18'1415.5
2018-Jul-28 08:34N 34°34' W 128°32'3615.5
2018-Jul-28 06:14N 34°55' W 129°07'  

Dump ship's entire track history